sensor_id;sensor_type;location;lat;lon;timestamp;temperature;humidity
5924;DHT22;2987;50.884;14.818;2023-04-28T00:01:06;3.50;99.90
5924;DHT22;2987;50.884;14.818;2023-04-28T00:03:32;3.40;99.90
5924;DHT22;2987;50.884;14.818;2023-04-28T00:05:57;3.50;99.90
5924;DHT22;2987;50.884;14.818;2023-04-28T00:08:23;3.40;99.90
5924;DHT22;2987;50.884;14.818;2023-04-28T00:10:52;3.50;99.90
5924;DHT22;2987;50.884;14.818;2023-04-28T00:13:18;3.20;99.90
5924;DHT22;2987;50.884;14.818;2023-04-28T00:15:44;3.20;99.90
5924;DHT22;2987;50.884;14.818;2023-04-28T00:18:10;3.20;99.90
5924;DHT22;2987;50.884;14.818;2023-04-28T00:20:36;3.20;99.90
5924;DHT22;2987;50.884;14.818;2023-04-28T00:23:02;3.30;99.90
5924;DHT22;2987;50.884;14.818;2023-04-28T00:25:28;3.20;99.90
5924;DHT22;2987;50.884;14.818;2023-04-28T00:27:53;3.20;99.90
5924;DHT22;2987;50.884;14.818;2023-04-28T00:30:20;3.20;99.90
5924;DHT22;2987;50.884;14.818;2023-04-28T00:32:46;3.20;99.90
5924;DHT22;2987;50.884;14.818;2023-04-28T00:35:12;3.00;99.90
5924;DHT22;2987;50.884;14.818;2023-04-28T00:37:38;3.00;99.90
5924;DHT22;2987;50.884;14.818;2023-04-28T00:40:04;2.80;99.90
5924;DHT22;2987;50.884;14.818;2023-04-28T00:42:31;2.90;99.90
5924;DHT22;2987;50.884;14.818;2023-04-28T00:44:57;2.80;99.90
5924;DHT22;2987;50.884;14.818;2023-04-28T00:47:23;2.80;99.90
5924;DHT22;2987;50.884;14.818;2023-04-28T00:52:18;3.00;99.90
5924;DHT22;2987;50.884;14.818;2023-04-28T00:54:44;2.60;99.90
5924;DHT22;2987;50.884;14.818;2023-04-28T00:57:12;2.70;99.90
5924;DHT22;2987;50.884;14.818;2023-04-28T00:59:38;2.70;99.90
5924;DHT22;2987;50.884;14.818;2023-04-28T01:02:04;2.70;99.90
5924;DHT22;2987;50.884;14.818;2023-04-28T01:04:32;2.70;99.90
5924;DHT22;2987;50.884;14.818;2023-04-28T01:06:59;2.70;99.90
5924;DHT22;2987;50.884;14.818;2023-04-28T01:09:27;2.90;99.90
5924;DHT22;2987;50.884;14.818;2023-04-28T01:11:53;2.70;99.90
5924;DHT22;2987;50.884;14.818;2023-04-28T01:14:34;2.80;99.90
5924;DHT22;2987;50.884;14.818;2023-04-28T01:17:00;2.60;99.90
5924;DHT22;2987;50.884;14.818;2023-04-28T01:19:27;2.70;99.90
5924;DHT22;2987;50.884;14.818;2023-04-28T01:21:54;2.90;99.90
5924;DHT22;2987;50.884;14.818;2023-04-28T01:24:21;2.70;99.90
5924;DHT22;2987;50.884;14.818;2023-04-28T01:26:48;2.90;99.90
5924;DHT22;2987;50.884;14.818;2023-04-28T01:29:14;2.70;99.90
5924;DHT22;2987;50.884;14.818;2023-04-28T01:31:41;2.70;99.90
5924;DHT22;2987;50.884;14.818;2023-04-28T01:34:07;2.70;99.90
5924;DHT22;2987;50.884;14.818;2023-04-28T01:36:35;2.60;99.90
5924;DHT22;2987;50.884;14.818;2023-04-28T01:39:02;2.80;99.90
5924;DHT22;2987;50.884;14.818;2023-04-28T01:41:28;2.70;99.90
5924;DHT22;2987;50.884;14.818;2023-04-28T01:43:54;2.50;99.90
5924;DHT22;2987;50.884;14.818;2023-04-28T01:46:20;2.40;99.90
5924;DHT22;2987;50.884;14.818;2023-04-28T01:48:46;2.40;99.90
5924;DHT22;2987;50.884;14.818;2023-04-28T01:51:12;2.50;99.90
5924;DHT22;2987;50.884;14.818;2023-04-28T01:53:39;2.40;99.90
5924;DHT22;2987;50.884;14.818;2023-04-28T01:56:05;2.50;99.90
5924;DHT22;2987;50.884;14.818;2023-04-28T01:58:31;2.40;99.90
5924;DHT22;2987;50.884;14.818;2023-04-28T02:00:57;2.50;99.90
5924;DHT22;2987;50.884;14.818;2023-04-28T02:03:24;2.50;99.90
5924;DHT22;2987;50.884;14.818;2023-04-28T02:05:50;2.40;99.90
5924;DHT22;2987;50.884;14.818;2023-04-28T02:08:16;2.50;99.90
5924;DHT22;2987;50.884;14.818;2023-04-28T02:10:42;2.50;99.90
5924;DHT22;2987;50.884;14.818;2023-04-28T02:13:09;2.30;99.90
5924;DHT22;2987;50.884;14.818;2023-04-28T02:15:39;2.40;99.90
5924;DHT22;2987;50.884;14.818;2023-04-28T02:18:05;2.40;99.90
5924;DHT22;2987;50.884;14.818;2023-04-28T02:20:31;2.60;99.90
5924;DHT22;2987;50.884;14.818;2023-04-28T02:22:57;2.40;99.90
5924;DHT22;2987;50.884;14.818;2023-04-28T02:27:50;2.40;99.90
5924;DHT22;2987;50.884;14.818;2023-04-28T02:30:16;2.30;99.90
5924;DHT22;2987;50.884;14.818;2023-04-28T02:32:42;2.50;99.90
5924;DHT22;2987;50.884;14.818;2023-04-28T02:35:08;2.40;99.90
5924;DHT22;2987;50.884;14.818;2023-04-28T02:37:34;2.40;99.90
5924;DHT22;2987;50.884;14.818;2023-04-28T02:40:00;2.40;99.90
5924;DHT22;2987;50.884;14.818;2023-04-28T02:42:26;2.40;99.90
5924;DHT22;2987;50.884;14.818;2023-04-28T02:44:52;2.40;99.90
5924;DHT22;2987;50.884;14.818;2023-04-28T02:47:18;2.50;99.90
5924;DHT22;2987;50.884;14.818;2023-04-28T02:49:44;2.40;99.90
5924;DHT22;2987;50.884;14.818;2023-04-28T02:52:10;2.50;99.90
5924;DHT22;2987;50.884;14.818;2023-04-28T02:54:37;2.40;99.90
5924;DHT22;2987;50.884;14.818;2023-04-28T02:57:03;2.50;99.90
5924;DHT22;2987;50.884;14.818;2023-04-28T02:59:30;2.40;99.90
5924;DHT22;2987;50.884;14.818;2023-04-28T03:01:56;2.50;99.90
5924;DHT22;2987;50.884;14.818;2023-04-28T03:04:22;2.40;99.90
5924;DHT22;2987;50.884;14.818;2023-04-28T03:06:49;2.50;99.90
5924;DHT22;2987;50.884;14.818;2023-04-28T03:09:16;2.40;99.90
5924;DHT22;2987;50.884;14.818;2023-04-28T03:14:08;2.40;99.90
5924;DHT22;2987;50.884;14.818;2023-04-28T03:16:34;2.40;99.90
5924;DHT22;2987;50.884;14.818;2023-04-28T03:19:00;2.40;99.90
5924;DHT22;2987;50.884;14.818;2023-04-28T03:21:26;2.20;99.90
5924;DHT22;2987;50.884;14.818;2023-04-28T03:23:52;2.50;99.90
5924;DHT22;2987;50.884;14.818;2023-04-28T03:26:19;2.40;99.90
5924;DHT22;2987;50.884;14.818;2023-04-28T03:28:47;2.40;99.90
5924;DHT22;2987;50.884;14.818;2023-04-28T03:31:13;2.40;99.90
5924;DHT22;2987;50.884;14.818;2023-04-28T03:33:39;2.20;99.90
5924;DHT22;2987;50.884;14.818;2023-04-28T03:36:06;2.40;99.90
5924;DHT22;2987;50.884;14.818;2023-04-28T03:38:32;2.50;99.90
5924;DHT22;2987;50.884;14.818;2023-04-28T03:40:58;2.20;99.90
5924;DHT22;2987;50.884;14.818;2023-04-28T03:43:45;2.50;99.90
5924;DHT22;2987;50.884;14.818;2023-04-28T03:46:10;2.30;99.90
5924;DHT22;2987;50.884;14.818;2023-04-28T03:48:36;2.60;99.90
5924;DHT22;2987;50.884;14.818;2023-04-28T03:51:02;2.70;99.90
5924;DHT22;2987;50.884;14.818;2023-04-28T03:53:28;2.30;99.90
5924;DHT22;2987;50.884;14.818;2023-04-28T03:55:54;2.70;99.90
5924;DHT22;2987;50.884;14.818;2023-04-28T03:58:21;2.30;99.90
5924;DHT22;2987;50.884;14.818;2023-04-28T04:00:47;2.50;99.90
5924;DHT22;2987;50.884;14.818;2023-04-28T04:03:13;2.60;99.90
5924;DHT22;2987;50.884;14.818;2023-04-28T04:05:39;2.70;99.90
5924;DHT22;2987;50.884;14.818;2023-04-28T04:10:32;2.50;99.90
5924;DHT22;2987;50.884;14.818;2023-04-28T04:12:58;2.50;99.90
5924;DHT22;2987;50.884;14.818;2023-04-28T04:15:24;2.60;99.90
5924;DHT22;2987;50.884;14.818;2023-04-28T04:17:51;2.30;99.90
5924;DHT22;2987;50.884;14.818;2023-04-28T04:20:17;2.60;99.90
5924;DHT22;2987;50.884;14.818;2023-04-28T04:22:44;2.70;99.90
5924;DHT22;2987;50.884;14.818;2023-04-28T04:25:10;2.70;99.90
5924;DHT22;2987;50.884;14.818;2023-04-28T04:27:37;2.50;99.90
5924;DHT22;2987;50.884;14.818;2023-04-28T04:30:04;2.60;99.90
5924;DHT22;2987;50.884;14.818;2023-04-28T04:32:30;2.90;99.90
5924;DHT22;2987;50.884;14.818;2023-04-28T04:34:56;3.00;99.90
5924;DHT22;2987;50.884;14.818;2023-04-28T04:37:22;2.90;99.90
5924;DHT22;2987;50.884;14.818;2023-04-28T04:39:55;2.90;99.90
5924;DHT22;2987;50.884;14.818;2023-04-28T04:42:22;3.10;99.90
5924;DHT22;2987;50.884;14.818;2023-04-28T04:44:59;3.30;99.90
5924;DHT22;2987;50.884;14.818;2023-04-28T04:47:25;3.40;99.90
5924;DHT22;2987;50.884;14.818;2023-04-28T04:49:51;3.50;99.90
5924;DHT22;2987;50.884;14.818;2023-04-28T04:52:19;3.40;99.90
5924;DHT22;2987;50.884;14.818;2023-04-28T04:54:45;3.70;99.90
5924;DHT22;2987;50.884;14.818;2023-04-28T04:57:12;3.70;99.90
5924;DHT22;2987;50.884;14.818;2023-04-28T04:59:58;4.00;99.90
5924;DHT22;2987;50.884;14.818;2023-04-28T05:02:25;4.80;99.90
5924;DHT22;2987;50.884;14.818;2023-04-28T05:04:51;5.40;99.90
5924;DHT22;2987;50.884;14.818;2023-04-28T05:07:18;5.80;99.90
5924;DHT22;2987;50.884;14.818;2023-04-28T05:09:44;6.10;99.90
5924;DHT22;2987;50.884;14.818;2023-04-28T05:12:10;6.40;99.90
5924;DHT22;2987;50.884;14.818;2023-04-28T05:14:36;6.30;99.90
5924;DHT22;2987;50.884;14.818;2023-04-28T05:17:02;6.90;99.90
5924;DHT22;2987;50.884;14.818;2023-04-28T05:19:33;6.70;99.90
5924;DHT22;2987;50.884;14.818;2023-04-28T05:21:59;6.80;99.90
5924;DHT22;2987;50.884;14.818;2023-04-28T05:24:26;7.00;99.90
5924;DHT22;2987;50.884;14.818;2023-04-28T05:26:53;7.20;99.90
5924;DHT22;2987;50.884;14.818;2023-04-28T05:29:20;7.60;99.90
5924;DHT22;2987;50.884;14.818;2023-04-28T05:31:46;7.80;99.90
5924;DHT22;2987;50.884;14.818;2023-04-28T05:34:13;8.30;99.90
5924;DHT22;2987;50.884;14.818;2023-04-28T05:36:39;8.60;99.90
5924;DHT22;2987;50.884;14.818;2023-04-28T05:39:07;8.80;99.90
5924;DHT22;2987;50.884;14.818;2023-04-28T05:41:35;9.20;99.90
5924;DHT22;2987;50.884;14.818;2023-04-28T05:44:01;9.20;99.90
5924;DHT22;2987;50.884;14.818;2023-04-28T05:46:28;9.40;99.90
5924;DHT22;2987;50.884;14.818;2023-04-28T05:48:54;9.50;99.90
5924;DHT22;2987;50.884;14.818;2023-04-28T05:53:47;9.70;99.90
5924;DHT22;2987;50.884;14.818;2023-04-28T05:56:15;9.70;99.90
5924;DHT22;2987;50.884;14.818;2023-04-28T05:58:42;9.90;99.90
5924;DHT22;2987;50.884;14.818;2023-04-28T06:01:10;9.90;99.90
5924;DHT22;2987;50.884;14.818;2023-04-28T06:03:38;9.90;99.90
5924;DHT22;2987;50.884;14.818;2023-04-28T06:06:07;10.20;99.90
5924;DHT22;2987;50.884;14.818;2023-04-28T06:08:33;10.20;99.90
5924;DHT22;2987;50.884;14.818;2023-04-28T06:11:02;10.30;99.90
5924;DHT22;2987;50.884;14.818;2023-04-28T06:13:28;10.60;99.90
5924;DHT22;2987;50.884;14.818;2023-04-28T06:15:55;10.70;99.90
5924;DHT22;2987;50.884;14.818;2023-04-28T06:18:21;11.00;99.90
5924;DHT22;2987;50.884;14.818;2023-04-28T06:20:49;11.20;99.90
5924;DHT22;2987;50.884;14.818;2023-04-28T06:23:15;11.30;99.90
5924;DHT22;2987;50.884;14.818;2023-04-28T06:25:45;11.50;99.90
5924;DHT22;2987;50.884;14.818;2023-04-28T06:28:11;11.70;99.90
5924;DHT22;2987;50.884;14.818;2023-04-28T06:30:38;12.00;99.90
5924;DHT22;2987;50.884;14.818;2023-04-28T06:33:04;12.40;99.90
5924;DHT22;2987;50.884;14.818;2023-04-28T06:35:30;12.80;99.90
5924;DHT22;2987;50.884;14.818;2023-04-28T06:37:56;13.30;99.90
5924;DHT22;2987;50.884;14.818;2023-04-28T06:40:22;13.70;99.90
5924;DHT22;2987;50.884;14.818;2023-04-28T06:42:53;14.00;99.90
5924;DHT22;2987;50.884;14.818;2023-04-28T06:45:23;14.20;99.90
5924;DHT22;2987;50.884;14.818;2023-04-28T06:47:49;14.40;99.90
5924;DHT22;2987;50.884;14.818;2023-04-28T06:50:16;14.30;99.90
5924;DHT22;2987;50.884;14.818;2023-04-28T06:52:42;14.30;99.90
5924;DHT22;2987;50.884;14.818;2023-04-28T06:55:08;14.10;99.90
5924;DHT22;2987;50.884;14.818;2023-04-28T06:57:35;14.00;99.90
5924;DHT22;2987;50.884;14.818;2023-04-28T07:00:03;14.00;99.90
5924;DHT22;2987;50.884;14.818;2023-04-28T07:02:29;14.10;99.90
5924;DHT22;2987;50.884;14.818;2023-04-28T07:04:55;14.10;99.90
5924;DHT22;2987;50.884;14.818;2023-04-28T07:07:21;14.30;99.90
5924;DHT22;2987;50.884;14.818;2023-04-28T07:09:47;14.40;99.90
5924;DHT22;2987;50.884;14.818;2023-04-28T07:12:13;14.80;99.90
5924;DHT22;2987;50.884;14.818;2023-04-28T07:14:39;14.90;99.90
5924;DHT22;2987;50.884;14.818;2023-04-28T07:17:06;15.00;99.90
5924;DHT22;2987;50.884;14.818;2023-04-28T07:19:32;15.20;99.90
5924;DHT22;2987;50.884;14.818;2023-04-28T07:21:58;15.50;99.90
5924;DHT22;2987;50.884;14.818;2023-04-28T07:24:24;15.60;99.70
5924;DHT22;2987;50.884;14.818;2023-04-28T07:26:51;15.90;99.90
5924;DHT22;2987;50.884;14.818;2023-04-28T07:29:17;16.30;99.20
5924;DHT22;2987;50.884;14.818;2023-04-28T07:31:43;16.50;97.20
5924;DHT22;2987;50.884;14.818;2023-04-28T07:34:09;16.70;97.00
5924;DHT22;2987;50.884;14.818;2023-04-28T07:36:35;16.70;96.20
5924;DHT22;2987;50.884;14.818;2023-04-28T07:39:02;16.80;95.30
5924;DHT22;2987;50.884;14.818;2023-04-28T07:41:28;16.80;95.40
5924;DHT22;2987;50.884;14.818;2023-04-28T07:43:54;16.80;94.30
5924;DHT22;2987;50.884;14.818;2023-04-28T07:46:20;16.50;94.20
5924;DHT22;2987;50.884;14.818;2023-04-28T07:48:47;16.40;95.20
5924;DHT22;2987;50.884;14.818;2023-04-28T07:51:13;16.60;95.60
5924;DHT22;2987;50.884;14.818;2023-04-28T07:53:39;17.00;95.70
5924;DHT22;2987;50.884;14.818;2023-04-28T07:56:05;17.30;95.70
5924;DHT22;2987;50.884;14.818;2023-04-28T07:58:32;17.30;94.40
5924;DHT22;2987;50.884;14.818;2023-04-28T08:00:58;17.10;93.90
5924;DHT22;2987;50.884;14.818;2023-04-28T08:03:24;17.30;93.50
5924;DHT22;2987;50.884;14.818;2023-04-28T08:05:50;17.10;94.20
5924;DHT22;2987;50.884;14.818;2023-04-28T08:08:16;16.60;94.50
5924;DHT22;2987;50.884;14.818;2023-04-28T08:10:42;16.60;95.40
5924;DHT22;2987;50.884;14.818;2023-04-28T08:13:08;16.70;94.50
5924;DHT22;2987;50.884;14.818;2023-04-28T08:15:34;16.80;95.10
5924;DHT22;2987;50.884;14.818;2023-04-28T08:18:00;16.90;95.50
5924;DHT22;2987;50.884;14.818;2023-04-28T08:20:27;17.30;94.30
5924;DHT22;2987;50.884;14.818;2023-04-28T08:22:54;17.10;93.40
5924;DHT22;2987;50.884;14.818;2023-04-28T08:25:20;16.90;95.00
5924;DHT22;2987;50.884;14.818;2023-04-28T08:27:46;17.00;93.90
5924;DHT22;2987;50.884;14.818;2023-04-28T08:30:12;17.00;95.30
5924;DHT22;2987;50.884;14.818;2023-04-28T08:32:38;17.00;95.50
5924;DHT22;2987;50.884;14.818;2023-04-28T08:35:05;17.00;93.10
5924;DHT22;2987;50.884;14.818;2023-04-28T08:37:32;17.10;93.50
5924;DHT22;2987;50.884;14.818;2023-04-28T08:39:58;17.10;94.20
5924;DHT22;2987;50.884;14.818;2023-04-28T08:42:30;17.30;94.30
5924;DHT22;2987;50.884;14.818;2023-04-28T08:44:58;17.30;94.80
5924;DHT22;2987;50.884;14.818;2023-04-28T08:47:33;17.40;93.90
5924;DHT22;2987;50.884;14.818;2023-04-28T08:50:07;17.60;95.20
5924;DHT22;2987;50.884;14.818;2023-04-28T08:52:34;17.30;92.90
5924;DHT22;2987;50.884;14.818;2023-04-28T08:55:05;17.10;93.90
5924;DHT22;2987;50.884;14.818;2023-04-28T08:57:36;17.20;93.40
5924;DHT22;2987;50.884;14.818;2023-04-28T09:00:04;17.40;93.70
5924;DHT22;2987;50.884;14.818;2023-04-28T09:02:31;17.50;92.90
5924;DHT22;2987;50.884;14.818;2023-04-28T09:04:57;17.40;93.70
5924;DHT22;2987;50.884;14.818;2023-04-28T09:07:23;17.40;95.00
5924;DHT22;2987;50.884;14.818;2023-04-28T09:09:49;17.10;94.60
5924;DHT22;2987;50.884;14.818;2023-04-28T09:12:17;17.00;93.70
5924;DHT22;2987;50.884;14.818;2023-04-28T09:14:43;16.80;94.30
5924;DHT22;2987;50.884;14.818;2023-04-28T09:19:39;16.50;94.80
5924;DHT22;2987;50.884;14.818;2023-04-28T09:22:08;16.50;94.20
5924;DHT22;2987;50.884;14.818;2023-04-28T09:24:37;16.40;95.50
5924;DHT22;2987;50.884;14.818;2023-04-28T09:27:06;16.40;94.30
5924;DHT22;2987;50.884;14.818;2023-04-28T09:29:36;16.30;95.10
5924;DHT22;2987;50.884;14.818;2023-04-28T09:32:19;16.40;94.60
5924;DHT22;2987;50.884;14.818;2023-04-28T09:34:50;16.40;94.50
5924;DHT22;2987;50.884;14.818;2023-04-28T09:37:19;16.40;94.50
5924;DHT22;2987;50.884;14.818;2023-04-28T09:39:47;16.50;94.80
5924;DHT22;2987;50.884;14.818;2023-04-28T09:42:37;16.30;94.50
5924;DHT22;2987;50.884;14.818;2023-04-28T09:45:07;16.40;93.80
5924;DHT22;2987;50.884;14.818;2023-04-28T09:47:37;16.20;93.80
5924;DHT22;2987;50.884;14.818;2023-04-28T09:50:06;16.00;93.70
5924;DHT22;2987;50.884;14.818;2023-04-28T09:52:36;15.90;94.70
5924;DHT22;2987;50.884;14.818;2023-04-28T09:55:04;15.90;95.30
5924;DHT22;2987;50.884;14.818;2023-04-28T09:57:33;15.80;96.70
5924;DHT22;2987;50.884;14.818;2023-04-28T10:00:01;15.90;95.90
5924;DHT22;2987;50.884;14.818;2023-04-28T10:02:35;16.10;95.40
5924;DHT22;2987;50.884;14.818;2023-04-28T10:05:01;16.20;97.10
5924;DHT22;2987;50.884;14.818;2023-04-28T10:07:28;16.30;96.00
5924;DHT22;2987;50.884;14.818;2023-04-28T10:09:57;16.30;94.80
5924;DHT22;2987;50.884;14.818;2023-04-28T10:12:24;16.40;94.60
5924;DHT22;2987;50.884;14.818;2023-04-28T10:14:51;16.50;96.50
5924;DHT22;2987;50.884;14.818;2023-04-28T10:17:21;16.60;96.10
5924;DHT22;2987;50.884;14.818;2023-04-28T10:19:53;16.50;94.00
5924;DHT22;2987;50.884;14.818;2023-04-28T10:22:49;16.40;94.30
5924;DHT22;2987;50.884;14.818;2023-04-28T10:25:35;16.40;95.10
5924;DHT22;2987;50.884;14.818;2023-04-28T10:28:06;16.30;94.20
5924;DHT22;2987;50.884;14.818;2023-04-28T10:33:21;16.10;96.70
5924;DHT22;2987;50.884;14.818;2023-04-28T10:35:48;16.20;94.30
5924;DHT22;2987;50.884;14.818;2023-04-28T10:38:15;16.20;94.90
5924;DHT22;2987;50.884;14.818;2023-04-28T10:40:43;16.20;93.70
5924;DHT22;2987;50.884;14.818;2023-04-28T10:43:12;16.10;93.60
5924;DHT22;2987;50.884;14.818;2023-04-28T10:46:00;16.10;94.50
5924;DHT22;2987;50.884;14.818;2023-04-28T10:48:51;16.10;94.90
5924;DHT22;2987;50.884;14.818;2023-04-28T10:54:06;16.30;96.00
5924;DHT22;2987;50.884;14.818;2023-04-28T10:56:33;16.50;95.60
5924;DHT22;2987;50.884;14.818;2023-04-28T10:58:59;16.60;97.20
5924;DHT22;2987;50.884;14.818;2023-04-28T11:01:29;16.80;96.60
5924;DHT22;2987;50.884;14.818;2023-04-28T11:03:58;16.90;94.60
5924;DHT22;2987;50.884;14.818;2023-04-28T11:06:36;16.90;94.90
5924;DHT22;2987;50.884;14.818;2023-04-28T11:12:12;16.80;95.30
5924;DHT22;2987;50.884;14.818;2023-04-28T11:14:38;16.80;93.80
5924;DHT22;2987;50.884;14.818;2023-04-28T11:17:07;16.80;93.10
5924;DHT22;2987;50.884;14.818;2023-04-28T11:19:38;16.80;94.70
5924;DHT22;2987;50.884;14.818;2023-04-28T11:22:13;16.80;92.40
5924;DHT22;2987;50.884;14.818;2023-04-28T11:24:39;16.80;93.80
5924;DHT22;2987;50.884;14.818;2023-04-28T11:27:05;16.80;95.60
5924;DHT22;2987;50.884;14.818;2023-04-28T11:29:37;16.70;95.00
5924;DHT22;2987;50.884;14.818;2023-04-28T11:32:04;16.70;94.20
5924;DHT22;2987;50.884;14.818;2023-04-28T11:34:31;16.70;95.20
5924;DHT22;2987;50.884;14.818;2023-04-28T11:36:57;16.60;93.40
5924;DHT22;2987;50.884;14.818;2023-04-28T11:39:26;16.70;94.90
5924;DHT22;2987;50.884;14.818;2023-04-28T11:41:53;16.80;93.70
5924;DHT22;2987;50.884;14.818;2023-04-28T11:44:21;16.80;94.30
5924;DHT22;2987;50.884;14.818;2023-04-28T11:46:49;16.80;93.10
5924;DHT22;2987;50.884;14.818;2023-04-28T11:49:17;16.60;93.40
5924;DHT22;2987;50.884;14.818;2023-04-28T11:51:43;16.60;94.20
5924;DHT22;2987;50.884;14.818;2023-04-28T11:54:11;16.50;94.00
5924;DHT22;2987;50.884;14.818;2023-04-28T11:56:40;16.50;92.20
5924;DHT22;2987;50.884;14.818;2023-04-28T11:59:08;16.50;93.60
5924;DHT22;2987;50.884;14.818;2023-04-28T12:01:51;16.40;94.90
5924;DHT22;2987;50.884;14.818;2023-04-28T12:07:12;16.60;94.30
5924;DHT22;2987;50.884;14.818;2023-04-28T12:12:06;16.60;94.10
5924;DHT22;2987;50.884;14.818;2023-04-28T12:14:53;16.70;93.70
5924;DHT22;2987;50.884;14.818;2023-04-28T12:17:28;16.70;96.10
5924;DHT22;2987;50.884;14.818;2023-04-28T12:19:56;16.70;95.30
5924;DHT22;2987;50.884;14.818;2023-04-28T12:22:23;16.70;95.20
5924;DHT22;2987;50.884;14.818;2023-04-28T12:25:10;16.70;93.60
5924;DHT22;2987;50.884;14.818;2023-04-28T12:30:23;16.50;93.60
5924;DHT22;2987;50.884;14.818;2023-04-28T12:32:50;16.50;95.00
5924;DHT22;2987;50.884;14.818;2023-04-28T12:35:16;16.50;94.20
5924;DHT22;2987;50.884;14.818;2023-04-28T12:37:43;16.60;95.70
5924;DHT22;2987;50.884;14.818;2023-04-28T12:40:09;16.70;96.30
5924;DHT22;2987;50.884;14.818;2023-04-28T12:42:36;16.70;94.10
5924;DHT22;2987;50.884;14.818;2023-04-28T12:45:02;16.80;93.90
5924;DHT22;2987;50.884;14.818;2023-04-28T12:47:28;16.70;93.90
5924;DHT22;2987;50.884;14.818;2023-04-28T12:49:54;16.70;94.40
5924;DHT22;2987;50.884;14.818;2023-04-28T12:52:20;16.70;94.30
5924;DHT22;2987;50.884;14.818;2023-04-28T12:54:47;16.70;94.30
5924;DHT22;2987;50.884;14.818;2023-04-28T12:57:15;16.70;94.90
5924;DHT22;2987;50.884;14.818;2023-04-28T12:59:42;16.70;94.70
5924;DHT22;2987;50.884;14.818;2023-04-28T13:02:09;16.50;95.30
5924;DHT22;2987;50.884;14.818;2023-04-28T13:04:35;16.50;96.10
5924;DHT22;2987;50.884;14.818;2023-04-28T13:07:02;16.50;96.30
5924;DHT22;2987;50.884;14.818;2023-04-28T13:09:28;16.50;96.50
5924;DHT22;2987;50.884;14.818;2023-04-28T13:11:54;16.30;96.10
5924;DHT22;2987;50.884;14.818;2023-04-28T13:14:21;16.30;96.90
5924;DHT22;2987;50.884;14.818;2023-04-28T13:16:47;16.20;97.80
5924;DHT22;2987;50.884;14.818;2023-04-28T13:19:13;16.20;96.70
5924;DHT22;2987;50.884;14.818;2023-04-28T13:21:40;16.20;97.30
5924;DHT22;2987;50.884;14.818;2023-04-28T13:24:08;16.20;96.80
5924;DHT22;2987;50.884;14.818;2023-04-28T13:26:38;16.20;98.10
5924;DHT22;2987;50.884;14.818;2023-04-28T13:29:07;16.20;96.60
5924;DHT22;2987;50.884;14.818;2023-04-28T13:31:37;16.30;96.40
5924;DHT22;2987;50.884;14.818;2023-04-28T13:34:07;16.20;97.00
5924;DHT22;2987;50.884;14.818;2023-04-28T13:36:39;16.20;98.60
5924;DHT22;2987;50.884;14.818;2023-04-28T13:39:10;16.10;97.70
5924;DHT22;2987;50.884;14.818;2023-04-28T13:41:39;16.00;99.20
5924;DHT22;2987;50.884;14.818;2023-04-28T13:44:07;16.00;99.60
5924;DHT22;2987;50.884;14.818;2023-04-28T13:46:37;15.90;99.90
5924;DHT22;2987;50.884;14.818;2023-04-28T13:49:04;15.90;99.90
5924;DHT22;2987;50.884;14.818;2023-04-28T13:51:34;15.90;99.90
5924;DHT22;2987;50.884;14.818;2023-04-28T13:54:02;15.90;99.90
5924;DHT22;2987;50.884;14.818;2023-04-28T13:56:32;16.00;99.50
5924;DHT22;2987;50.884;14.818;2023-04-28T13:59:01;15.90;99.90
5924;DHT22;2987;50.884;14.818;2023-04-28T14:01:30;15.80;99.90
5924;DHT22;2987;50.884;14.818;2023-04-28T14:03:56;15.80;99.90
5924;DHT22;2987;50.884;14.818;2023-04-28T14:06:24;15.90;99.90
5924;DHT22;2987;50.884;14.818;2023-04-28T14:08:50;15.80;99.90
5924;DHT22;2987;50.884;14.818;2023-04-28T14:11:16;15.70;99.10
5924;DHT22;2987;50.884;14.818;2023-04-28T14:13:42;15.70;99.90
5924;DHT22;2987;50.884;14.818;2023-04-28T14:16:08;15.60;99.90
5924;DHT22;2987;50.884;14.818;2023-04-28T14:18:34;15.50;99.90
5924;DHT22;2987;50.884;14.818;2023-04-28T14:21:00;15.40;99.90
5924;DHT22;2987;50.884;14.818;2023-04-28T14:23:28;15.30;99.90
5924;DHT22;2987;50.884;14.818;2023-04-28T14:25:54;15.30;99.90
5924;DHT22;2987;50.884;14.818;2023-04-28T14:28:21;15.30;99.90
5924;DHT22;2987;50.884;14.818;2023-04-28T14:30:47;15.20;99.90
5924;DHT22;2987;50.884;14.818;2023-04-28T14:33:14;15.20;99.90
5924;DHT22;2987;50.884;14.818;2023-04-28T14:35:40;15.20;99.90
5924;DHT22;2987;50.884;14.818;2023-04-28T14:38:06;15.10;99.90
5924;DHT22;2987;50.884;14.818;2023-04-28T14:40:33;15.00;99.90
5924;DHT22;2987;50.884;14.818;2023-04-28T14:42:59;15.00;99.90
5924;DHT22;2987;50.884;14.818;2023-04-28T14:45:25;14.90;99.90
5924;DHT22;2987;50.884;14.818;2023-04-28T14:47:51;14.80;99.90
5924;DHT22;2987;50.884;14.818;2023-04-28T14:50:17;14.70;99.90
5924;DHT22;2987;50.884;14.818;2023-04-28T14:52:44;14.70;99.90
5924;DHT22;2987;50.884;14.818;2023-04-28T14:55:10;14.70;99.90
5924;DHT22;2987;50.884;14.818;2023-04-28T14:57:36;14.60;99.90
5924;DHT22;2987;50.884;14.818;2023-04-28T15:00:03;14.60;99.90
5924;DHT22;2987;50.884;14.818;2023-04-28T15:02:32;14.50;99.90
5924;DHT22;2987;50.884;14.818;2023-04-28T15:04:58;14.40;99.90
5924;DHT22;2987;50.884;14.818;2023-04-28T15:07:24;14.30;99.90
5924;DHT22;2987;50.884;14.818;2023-04-28T15:09:57;14.30;99.90
5924;DHT22;2987;50.884;14.818;2023-04-28T15:12:23;14.20;99.90
5924;DHT22;2987;50.884;14.818;2023-04-28T15:14:50;14.20;99.90
5924;DHT22;2987;50.884;14.818;2023-04-28T15:17:19;14.20;99.90
5924;DHT22;2987;50.884;14.818;2023-04-28T15:19:47;14.10;99.90
5924;DHT22;2987;50.884;14.818;2023-04-28T15:22:14;14.10;99.90
5924;DHT22;2987;50.884;14.818;2023-04-28T15:24:40;14.10;99.90
5924;DHT22;2987;50.884;14.818;2023-04-28T15:27:06;14.00;99.90
5924;DHT22;2987;50.884;14.818;2023-04-28T15:29:32;14.00;99.90
5924;DHT22;2987;50.884;14.818;2023-04-28T15:31:58;13.90;99.90
5924;DHT22;2987;50.884;14.818;2023-04-28T15:34:24;13.90;99.90
5924;DHT22;2987;50.884;14.818;2023-04-28T15:36:50;13.90;99.90
5924;DHT22;2987;50.884;14.818;2023-04-28T15:39:18;13.80;99.90
5924;DHT22;2987;50.884;14.818;2023-04-28T15:41:44;13.70;99.90
5924;DHT22;2987;50.884;14.818;2023-04-28T15:44:10;13.70;99.90
5924;DHT22;2987;50.884;14.818;2023-04-28T15:46:37;13.70;99.90
5924;DHT22;2987;50.884;14.818;2023-04-28T15:49:03;13.70;99.90
5924;DHT22;2987;50.884;14.818;2023-04-28T15:51:29;13.60;99.90
5924;DHT22;2987;50.884;14.818;2023-04-28T15:53:56;13.70;99.90
5924;DHT22;2987;50.884;14.818;2023-04-28T15:56:22;13.70;99.90
5924;DHT22;2987;50.884;14.818;2023-04-28T15:58:48;13.70;99.90
5924;DHT22;2987;50.884;14.818;2023-04-28T16:01:15;13.70;99.90
5924;DHT22;2987;50.884;14.818;2023-04-28T16:03:41;13.70;99.90
5924;DHT22;2987;50.884;14.818;2023-04-28T16:06:07;13.70;99.90
5924;DHT22;2987;50.884;14.818;2023-04-28T16:08:35;13.70;99.90
5924;DHT22;2987;50.884;14.818;2023-04-28T16:11:01;13.60;99.90
5924;DHT22;2987;50.884;14.818;2023-04-28T16:13:28;13.60;99.90
5924;DHT22;2987;50.884;14.818;2023-04-28T16:16:02;13.60;99.90
5924;DHT22;2987;50.884;14.818;2023-04-28T16:18:28;13.50;99.90
5924;DHT22;2987;50.884;14.818;2023-04-28T16:20:54;13.50;99.90
5924;DHT22;2987;50.884;14.818;2023-04-28T16:23:20;13.50;99.90
5924;DHT22;2987;50.884;14.818;2023-04-28T16:25:46;13.40;99.90